Airfield :
LOGIN :

Register | Disclaimer

   EN    FR    IT 

 










Legend :    VFR   Marginal VFR   IFR   Intensive IFR   Very Intensive IFR
Visi :
Ceiling :
>= 8 km
>= 3000ft
5 to 8 km
1000 to 3000 ft
1500m to 5 km
500 to 1000 ft
800 to 1500m
200 to 500 ft
< 800m
< 200 ft
Symbols :   Thunderstorms  Fog  Heavy snow  Heavy precipitations  Wind > 20 kt
SIGMETs :     Misc.  Thunderstorms  Icing  Turbulence  Mountain Waves  Volcanic Ashes






- Airport Elevation : 36 ft
- IATA code : LTQ


LFAT - Le Touquet

CURRENT METAR :
  • 250200Z AUTO 21010KT 180V240 9000 -RA BKN015/// OVC021/// ///TCU 12/11 Q1000

EXPIRED METARs :
  • 250130Z AUTO 23011KT 190V260 9999 SCT019 BKN025 OVC062 13/11 Q1000
  • 250100Z AUTO 21009KT 180V260 9000 -RA FEW014/// SCT026/// OVC058/// ///CB 12/10 Q1000
  • 250030Z AUTO 19012KT 150V230 9999 -RA BKN025/// OVC031/// ///CB 15/12 Q0999
  • 250000Z AUTO 19013KT 170V240 9999 BKN027 OVC045 16/11 Q0999
  • 242330Z AUTO 20017G29KT 160V230 9999 SCT030 SCT041 OVC047 16/11 Q1000
  • 242300Z AUTO 19016KT 160V230 9999 FEW027 BKN052 BKN070 16/11 Q1000
  • 242230Z AUTO 19018G31KT 160V220 9999 SCT027 BKN074 OVC088 16/11 Q1000
  • 242200Z AUTO 19018G31KT 160V230 9999 BKN031 BKN041 OVC100 16/12 Q1001

Expired Forecast.
ATIS : +33 3 21 06 62 84



MET'MAP, your aeronautical weather chart ! - Copyright ORBIFLY December 2007 - Disclaimer

ORBIFLY MET'MAP TEAM :

Programming & Development : Alexandra Zaïnal
Concept & original design : Baudouin d'Aumeries
Assistance for programming : Marc-Olivier Méhu
Technical & hardware support : Manuel Goepfert

Contact : metmap@orbifly.com




SOURCES & CREDITS :

   NOAA